sensor_id;sensor_type;location;lat;lon;timestamp;pressure;altitude;pressure_sealevel;temperature;humidity
66668;BME280;57205;51.438;-2.006;2023-04-25T00:00:29;100880.66;;;6.06;100.00
66668;BME280;57205;51.438;-2.006;2023-04-25T00:02:54;100885.63;;;6.03;100.00
66668;BME280;57205;51.438;-2.006;2023-04-25T00:05:22;100891.38;;;6.00;100.00
66668;BME280;57205;51.438;-2.006;2023-04-25T00:07:49;100895.88;;;5.99;100.00
66668;BME280;57205;51.438;-2.006;2023-04-25T00:10:15;100896.69;;;6.00;100.00
66668;BME280;57205;51.438;-2.006;2023-04-25T00:12:41;100895.06;;;5.99;100.00
66668;BME280;57205;51.438;-2.006;2023-04-25T00:15:07;100905.34;;;5.95;100.00
66668;BME280;57205;51.438;-2.006;2023-04-25T00:17:32;100906.63;;;5.93;100.00
66668;BME280;57205;51.438;-2.006;2023-04-25T00:19:58;100908.81;;;5.96;100.00
66668;BME280;57205;51.438;-2.006;2023-04-25T00:22:23;100906.97;;;5.96;100.00
66668;BME280;57205;51.438;-2.006;2023-04-25T00:24:49;100904.31;;;5.96;100.00
66668;BME280;57205;51.438;-2.006;2023-04-25T00:27:14;100918.03;;;5.93;100.00
66668;BME280;57205;51.438;-2.006;2023-04-25T00:29:40;100921.28;;;5.95;100.00
66668;BME280;57205;51.438;-2.006;2023-04-25T00:32:05;100916.53;;;5.97;100.00
66668;BME280;57205;51.438;-2.006;2023-04-25T00:34:30;100924.50;;;5.97;100.00
66668;BME280;57205;51.438;-2.006;2023-04-25T00:36:56;100915.59;;;5.91;100.00
66668;BME280;57205;51.438;-2.006;2023-04-25T00:39:22;100918.72;;;5.88;100.00
66668;BME280;57205;51.438;-2.006;2023-04-25T00:41:47;100914.06;;;5.84;100.00
66668;BME280;57205;51.438;-2.006;2023-04-25T00:44:15;100922.91;;;5.78;100.00
66668;BME280;57205;51.438;-2.006;2023-04-25T00:46:42;100927.25;;;5.72;100.00
66668;BME280;57205;51.438;-2.006;2023-04-25T00:49:07;100927.38;;;5.66;100.00
66668;BME280;57205;51.438;-2.006;2023-04-25T00:51:33;100928.25;;;5.60;100.00
66668;BME280;57205;51.438;-2.006;2023-04-25T00:53:59;100931.59;;;5.55;100.00
66668;BME280;57205;51.438;-2.006;2023-04-25T00:56:25;100930.41;;;5.51;100.00
66668;BME280;57205;51.438;-2.006;2023-04-25T00:58:53;100923.94;;;5.47;100.00
66668;BME280;57205;51.438;-2.006;2023-04-25T01:01:20;100932.91;;;5.46;100.00
66668;BME280;57205;51.438;-2.006;2023-04-25T01:03:46;100934.59;;;5.41;100.00
66668;BME280;57205;51.438;-2.006;2023-04-25T01:06:12;100936.47;;;5.40;100.00
66668;BME280;57205;51.438;-2.006;2023-04-25T01:08:39;100943.38;;;5.41;100.00
66668;BME280;57205;51.438;-2.006;2023-04-25T01:11:05;100949.75;;;5.40;100.00
66668;BME280;57205;51.438;-2.006;2023-04-25T01:13:32;100948.34;;;5.38;100.00
66668;BME280;57205;51.438;-2.006;2023-04-25T01:15:59;100952.47;;;5.34;100.00
66668;BME280;57205;51.438;-2.006;2023-04-25T01:18:24;100953.50;;;5.33;100.00
66668;BME280;57205;51.438;-2.006;2023-04-25T01:20:53;100947.00;;;5.29;100.00
66668;BME280;57205;51.438;-2.006;2023-04-25T01:23:20;100947.66;;;5.24;100.00
66668;BME280;57205;51.438;-2.006;2023-04-25T01:25:46;100956.91;;;5.22;100.00
66668;BME280;57205;51.438;-2.006;2023-04-25T01:28:13;100948.75;;;5.17;100.00
66668;BME280;57205;51.438;-2.006;2023-04-25T01:30:38;100947.59;;;5.13;100.00
66668;BME280;57205;51.438;-2.006;2023-04-25T01:33:04;100948.47;;;5.07;100.00
66668;BME280;57205;51.438;-2.006;2023-04-25T01:35:31;100950.53;;;5.05;100.00
66668;BME280;57205;51.438;-2.006;2023-04-25T01:37:57;100955.25;;;5.03;100.00
66668;BME280;57205;51.438;-2.006;2023-04-25T01:40:24;100959.38;;;4.98;100.00
66668;BME280;57205;51.438;-2.006;2023-04-25T01:42:50;100959.81;;;4.95;100.00
66668;BME280;57205;51.438;-2.006;2023-04-25T01:45:17;100959.44;;;4.92;100.00
66668;BME280;57205;51.438;-2.006;2023-04-25T01:47:43;100959.63;;;4.90;100.00
66668;BME280;57205;51.438;-2.006;2023-04-25T01:50:10;100962.72;;;4.87;100.00
66668;BME280;57205;51.438;-2.006;2023-04-25T01:52:36;100971.13;;;4.84;100.00
66668;BME280;57205;51.438;-2.006;2023-04-25T01:55:02;100964.88;;;4.79;100.00
66668;BME280;57205;51.438;-2.006;2023-04-25T01:57:28;100964.50;;;4.75;100.00
66668;BME280;57205;51.438;-2.006;2023-04-25T02:00:02;100969.19;;;4.73;100.00
66668;BME280;57205;51.438;-2.006;2023-04-25T02:02:28;100965.94;;;4.71;100.00
66668;BME280;57205;51.438;-2.006;2023-04-25T02:04:54;100970.66;;;4.69;100.00
66668;BME280;57205;51.438;-2.006;2023-04-25T02:07:20;100964.75;;;4.67;100.00
66668;BME280;57205;51.438;-2.006;2023-04-25T02:09:45;100967.63;;;4.66;100.00
66668;BME280;57205;51.438;-2.006;2023-04-25T02:12:11;100968.25;;;4.61;100.00
66668;BME280;57205;51.438;-2.006;2023-04-25T02:14:37;100975.03;;;4.57;100.00
66668;BME280;57205;51.438;-2.006;2023-04-25T02:17:03;100967.50;;;4.54;100.00
66668;BME280;57205;51.438;-2.006;2023-04-25T02:19:28;100968.97;;;4.50;100.00
66668;BME280;57205;51.438;-2.006;2023-04-25T02:21:54;100972.06;;;4.47;100.00
66668;BME280;57205;51.438;-2.006;2023-04-25T02:24:19;100971.88;;;4.42;100.00
66668;BME280;57205;51.438;-2.006;2023-04-25T02:26:45;100979.81;;;4.42;100.00
66668;BME280;57205;51.438;-2.006;2023-04-25T02:29:12;100969.28;;;4.36;100.00
66668;BME280;57205;51.438;-2.006;2023-04-25T02:31:40;100978.09;;;4.30;100.00
66668;BME280;57205;51.438;-2.006;2023-04-25T02:34:06;100978.53;;;4.27;100.00
66668;BME280;57205;51.438;-2.006;2023-04-25T02:36:31;100981.38;;;4.25;100.00
66668;BME280;57205;51.438;-2.006;2023-04-25T02:39:00;100976.13;;;4.19;100.00
66668;BME280;57205;51.438;-2.006;2023-04-25T02:41:26;100978.59;;;4.14;100.00
66668;BME280;57205;51.438;-2.006;2023-04-25T02:43:51;100974.97;;;4.08;100.00
66668;BME280;57205;51.438;-2.006;2023-04-25T02:46:17;100972.34;;;4.02;100.00
66668;BME280;57205;51.438;-2.006;2023-04-25T02:48:42;100979.91;;;3.98;100.00
66668;BME280;57205;51.438;-2.006;2023-04-25T02:51:07;100977.91;;;3.93;100.00
66668;BME280;57205;51.438;-2.006;2023-04-25T02:53:33;100977.94;;;3.87;100.00
66668;BME280;57205;51.438;-2.006;2023-04-25T02:55:58;100987.31;;;3.83;100.00
66668;BME280;57205;51.438;-2.006;2023-04-25T02:58:24;100985.53;;;3.77;100.00
66668;BME280;57205;51.438;-2.006;2023-04-25T03:00:50;100990.66;;;3.65;100.00
66668;BME280;57205;51.438;-2.006;2023-04-25T03:03:15;101000.47;;;3.58;100.00
66668;BME280;57205;51.438;-2.006;2023-04-25T03:05:43;100999.25;;;3.48;100.00
66668;BME280;57205;51.438;-2.006;2023-04-25T03:08:08;100996.84;;;3.40;100.00
66668;BME280;57205;51.438;-2.006;2023-04-25T03:10:34;101001.31;;;3.33;100.00
66668;BME280;57205;51.438;-2.006;2023-04-25T03:13:00;101005.81;;;3.26;100.00
66668;BME280;57205;51.438;-2.006;2023-04-25T03:15:25;101014.56;;;3.20;100.00
66668;BME280;57205;51.438;-2.006;2023-04-25T03:17:51;101013.59;;;3.08;100.00
66668;BME280;57205;51.438;-2.006;2023-04-25T03:20:16;101015.03;;;2.97;100.00
66668;BME280;57205;51.438;-2.006;2023-04-25T03:22:42;101021.75;;;2.93;100.00
66668;BME280;57205;51.438;-2.006;2023-04-25T03:25:07;101023.75;;;2.84;100.00
66668;BME280;57205;51.438;-2.006;2023-04-25T03:27:33;101026.63;;;2.76;100.00
66668;BME280;57205;51.438;-2.006;2023-04-25T03:29:58;101038.22;;;2.69;100.00
66668;BME280;57205;51.438;-2.006;2023-04-25T03:32:24;101039.00;;;2.63;100.00
66668;BME280;57205;51.438;-2.006;2023-04-25T03:34:50;101033.31;;;2.59;100.00
66668;BME280;57205;51.438;-2.006;2023-04-25T03:37:15;101034.53;;;2.57;100.00
66668;BME280;57205;51.438;-2.006;2023-04-25T03:39:41;101029.88;;;2.52;100.00
66668;BME280;57205;51.438;-2.006;2023-04-25T03:42:06;101033.09;;;2.48;100.00
66668;BME280;57205;51.438;-2.006;2023-04-25T03:44:32;101032.69;;;2.44;100.00
66668;BME280;57205;51.438;-2.006;2023-04-25T03:46:57;101026.78;;;2.42;100.00
66668;BME280;57205;51.438;-2.006;2023-04-25T03:49:24;101037.56;;;2.41;100.00
66668;BME280;57205;51.438;-2.006;2023-04-25T03:51:50;101044.03;;;2.38;100.00
66668;BME280;57205;51.438;-2.006;2023-04-25T03:54:15;101054.59;;;2.38;100.00
66668;BME280;57205;51.438;-2.006;2023-04-25T03:56:41;101052.59;;;2.40;100.00
66668;BME280;57205;51.438;-2.006;2023-04-25T03:59:06;101051.75;;;2.40;100.00
66668;BME280;57205;51.438;-2.006;2023-04-25T04:01:33;101061.13;;;2.42;100.00
66668;BME280;57205;51.438;-2.006;2023-04-25T04:03:58;101062.16;;;2.41;100.00
66668;BME280;57205;51.438;-2.006;2023-04-25T04:06:23;101066.41;;;2.36;100.00
66668;BME280;57205;51.438;-2.006;2023-04-25T04:08:49;101064.97;;;2.27;100.00
66668;BME280;57205;51.438;-2.006;2023-04-25T04:11:14;101074.88;;;2.18;100.00
66668;BME280;57205;51.438;-2.006;2023-04-25T04:13:40;101078.28;;;2.12;100.00
66668;BME280;57205;51.438;-2.006;2023-04-25T04:16:05;101084.38;;;2.06;100.00
66668;BME280;57205;51.438;-2.006;2023-04-25T04:18:31;101086.97;;;1.99;100.00
66668;BME280;57205;51.438;-2.006;2023-04-25T04:20:58;101086.97;;;1.93;100.00
66668;BME280;57205;51.438;-2.006;2023-04-25T04:23:24;101087.75;;;1.87;100.00
66668;BME280;57205;51.438;-2.006;2023-04-25T04:25:49;101087.31;;;1.83;100.00
66668;BME280;57205;51.438;-2.006;2023-04-25T04:28:15;101089.13;;;1.83;100.00
66668;BME280;57205;51.438;-2.006;2023-04-25T04:30:41;101091.78;;;1.83;100.00
66668;BME280;57205;51.438;-2.006;2023-04-25T04:33:08;101088.50;;;1.81;100.00
66668;BME280;57205;51.438;-2.006;2023-04-25T04:35:34;101085.88;;;1.81;100.00
66668;BME280;57205;51.438;-2.006;2023-04-25T04:37:59;101097.44;;;1.80;100.00
66668;BME280;57205;51.438;-2.006;2023-04-25T04:40:25;101097.03;;;1.76;100.00
66668;BME280;57205;51.438;-2.006;2023-04-25T04:42:50;101097.81;;;1.77;100.00
66668;BME280;57205;51.438;-2.006;2023-04-25T04:45:16;101103.09;;;1.77;100.00
66668;BME280;57205;51.438;-2.006;2023-04-25T04:47:42;101097.03;;;1.76;100.00
66668;BME280;57205;51.438;-2.006;2023-04-25T04:50:09;101115.28;;;1.78;100.00
66668;BME280;57205;51.438;-2.006;2023-04-25T04:52:36;101111.84;;;1.77;100.00
66668;BME280;57205;51.438;-2.006;2023-04-25T04:55:03;101105.72;;;1.77;100.00
66668;BME280;57205;51.438;-2.006;2023-04-25T04:57:29;101113.44;;;1.72;100.00
66668;BME280;57205;51.438;-2.006;2023-04-25T04:59:54;101122.38;;;1.71;100.00
66668;BME280;57205;51.438;-2.006;2023-04-25T05:02:20;101121.75;;;1.69;100.00
66668;BME280;57205;51.438;-2.006;2023-04-25T05:04:46;101122.53;;;1.69;100.00
66668;BME280;57205;51.438;-2.006;2023-04-25T05:07:12;101124.19;;;1.70;100.00
66668;BME280;57205;51.438;-2.006;2023-04-25T05:09:38;101128.22;;;1.73;100.00
66668;BME280;57205;51.438;-2.006;2023-04-25T05:12:04;101130.09;;;1.79;100.00
66668;BME280;57205;51.438;-2.006;2023-04-25T05:14:29;101133.16;;;1.82;100.00
66668;BME280;57205;51.438;-2.006;2023-04-25T05:16:55;101135.78;;;1.82;100.00
66668;BME280;57205;51.438;-2.006;2023-04-25T05:19:20;101135.59;;;1.84;100.00
66668;BME280;57205;51.438;-2.006;2023-04-25T05:21:46;101136.06;;;1.87;100.00
66668;BME280;57205;51.438;-2.006;2023-04-25T05:24:11;101142.16;;;1.94;100.00
66668;BME280;57205;51.438;-2.006;2023-04-25T05:26:37;101140.16;;;2.03;100.00
66668;BME280;57205;51.438;-2.006;2023-04-25T05:29:03;101145.50;;;2.10;100.00
66668;BME280;57205;51.438;-2.006;2023-04-25T05:31:28;101153.28;;;2.24;100.00
66668;BME280;57205;51.438;-2.006;2023-04-25T05:33:54;101158.91;;;2.68;100.00
66668;BME280;57205;51.438;-2.006;2023-04-25T05:36:19;101165.09;;;3.41;100.00
66668;BME280;57205;51.438;-2.006;2023-04-25T05:38:45;101160.66;;;4.25;100.00
66668;BME280;57205;51.438;-2.006;2023-04-25T05:41:11;101157.69;;;4.90;100.00
66668;BME280;57205;51.438;-2.006;2023-04-25T05:43:36;101147.63;;;5.72;100.00
66668;BME280;57205;51.438;-2.006;2023-04-25T05:46:01;101143.59;;;6.42;100.00
66668;BME280;57205;51.438;-2.006;2023-04-25T05:48:27;101140.94;;;7.02;100.00
66668;BME280;57205;51.438;-2.006;2023-04-25T05:50:52;101149.25;;;7.58;100.00
66668;BME280;57205;51.438;-2.006;2023-04-25T05:53:19;101141.88;;;8.11;100.00
66668;BME280;57205;51.438;-2.006;2023-04-25T05:55:45;101137.53;;;8.45;100.00
66668;BME280;57205;51.438;-2.006;2023-04-25T05:58:10;101143.09;;;8.71;96.23
66668;BME280;57205;51.438;-2.006;2023-04-25T06:00:35;101138.72;;;8.37;95.81
66668;BME280;57205;51.438;-2.006;2023-04-25T06:03:01;101144.47;;;7.95;99.47
66668;BME280;57205;51.438;-2.006;2023-04-25T06:05:26;101143.06;;;7.92;100.00
66668;BME280;57205;51.438;-2.006;2023-04-25T06:07:52;101141.28;;;8.60;100.00
66668;BME280;57205;51.438;-2.006;2023-04-25T06:10:18;101140.44;;;9.33;97.02
66668;BME280;57205;51.438;-2.006;2023-04-25T06:12:43;101135.59;;;10.23;93.64
66668;BME280;57205;51.438;-2.006;2023-04-25T06:15:09;101129.84;;;11.11;83.05
66668;BME280;57205;51.438;-2.006;2023-04-25T06:17:35;101129.88;;;11.89;79.71
66668;BME280;57205;51.438;-2.006;2023-04-25T06:20:00;101142.53;;;12.55;73.21
66668;BME280;57205;51.438;-2.006;2023-04-25T06:22:26;101138.38;;;13.30;68.27
66668;BME280;57205;51.438;-2.006;2023-04-25T06:24:52;101146.91;;;13.87;62.13
66668;BME280;57205;51.438;-2.006;2023-04-25T06:27:17;101145.72;;;14.28;58.94
66668;BME280;57205;51.438;-2.006;2023-04-25T06:29:43;101133.16;;;14.62;55.92
66668;BME280;57205;51.438;-2.006;2023-04-25T06:32:08;101132.34;;;15.06;56.34
66668;BME280;57205;51.438;-2.006;2023-04-25T06:34:33;101141.47;;;15.10;53.76
66668;BME280;57205;51.438;-2.006;2023-04-25T06:36:59;101152.09;;;15.63;53.08
66668;BME280;57205;51.438;-2.006;2023-04-25T06:39:25;101152.31;;;16.19;49.98
66668;BME280;57205;51.438;-2.006;2023-04-25T06:41:50;101157.59;;;15.82;50.02
66668;BME280;57205;51.438;-2.006;2023-04-25T06:44:16;101161.28;;;15.91;50.68
66668;BME280;57205;51.438;-2.006;2023-04-25T06:46:41;101166.34;;;15.98;48.41
66668;BME280;57205;51.438;-2.006;2023-04-25T06:49:07;101163.81;;;16.53;45.42
66668;BME280;57205;51.438;-2.006;2023-04-25T06:51:32;101157.66;;;16.67;43.17
66668;BME280;57205;51.438;-2.006;2023-04-25T06:53:58;101161.50;;;16.42;43.69
66668;BME280;57205;51.438;-2.006;2023-04-25T06:56:24;101168.56;;;16.99;42.90
66668;BME280;57205;51.438;-2.006;2023-04-25T06:58:49;101173.13;;;17.03;41.57
66668;BME280;57205;51.438;-2.006;2023-04-25T07:01:15;101178.13;;;17.10;40.46
66668;BME280;57205;51.438;-2.006;2023-04-25T07:03:40;101184.03;;;17.30;40.26
66668;BME280;57205;51.438;-2.006;2023-04-25T07:06:06;101175.59;;;17.18;39.87
66668;BME280;57205;51.438;-2.006;2023-04-25T07:08:32;101180.47;;;17.67;38.79
66668;BME280;57205;51.438;-2.006;2023-04-25T07:10:57;101179.66;;;18.26;37.78
66668;BME280;57205;51.438;-2.006;2023-04-25T07:13:23;101183.56;;;18.33;38.02
66668;BME280;57205;51.438;-2.006;2023-04-25T07:15:48;101186.56;;;18.32;36.94
66668;BME280;57205;51.438;-2.006;2023-04-25T07:18:14;101191.59;;;18.11;36.67
66668;BME280;57205;51.438;-2.006;2023-04-25T07:20:40;101181.13;;;18.32;36.55
66668;BME280;57205;51.438;-2.006;2023-04-25T07:23:06;101184.69;;;18.60;35.54
66668;BME280;57205;51.438;-2.006;2023-04-25T07:25:32;101189.91;;;18.42;36.29
66668;BME280;57205;51.438;-2.006;2023-04-25T07:27:57;101191.81;;;18.15;36.45
66668;BME280;57205;51.438;-2.006;2023-04-25T07:30:23;101186.28;;;18.20;36.70
66668;BME280;57205;51.438;-2.006;2023-04-25T07:32:49;101183.69;;;18.56;35.72
66668;BME280;57205;51.438;-2.006;2023-04-25T07:35:15;101189.47;;;18.76;34.29
66668;BME280;57205;51.438;-2.006;2023-04-25T07:37:41;101192.00;;;18.18;35.79
66668;BME280;57205;51.438;-2.006;2023-04-25T07:40:06;101188.06;;;18.38;35.49
66668;BME280;57205;51.438;-2.006;2023-04-25T07:42:34;101183.41;;;18.93;35.32
66668;BME280;57205;51.438;-2.006;2023-04-25T07:45:00;101190.94;;;18.82;34.75
66668;BME280;57205;51.438;-2.006;2023-04-25T07:47:26;101193.13;;;18.44;35.53
66668;BME280;57205;51.438;-2.006;2023-04-25T07:49:51;101198.13;;;18.24;35.11
66668;BME280;57205;51.438;-2.006;2023-04-25T07:52:17;101191.94;;;17.91;35.82
66668;BME280;57205;51.438;-2.006;2023-04-25T07:54:42;101190.03;;;19.22;34.00
66668;BME280;57205;51.438;-2.006;2023-04-25T07:57:08;101193.34;;;19.33;33.56
66668;BME280;57205;51.438;-2.006;2023-04-25T07:59:33;101199.91;;;18.01;34.86
66668;BME280;57205;51.438;-2.006;2023-04-25T08:02:00;101191.03;;;17.82;35.75
66668;BME280;57205;51.438;-2.006;2023-04-25T08:04:26;101192.28;;;18.03;35.54
66668;BME280;57205;51.438;-2.006;2023-04-25T08:06:51;101199.03;;;18.60;34.29
66668;BME280;57205;51.438;-2.006;2023-04-25T08:09:19;101199.78;;;17.79;34.87
66668;BME280;57205;51.438;-2.006;2023-04-25T08:11:45;101194.25;;;17.84;35.45
66668;BME280;57205;51.438;-2.006;2023-04-25T08:14:11;101194.88;;;18.08;34.84
66668;BME280;57205;51.438;-2.006;2023-04-25T08:16:36;101194.72;;;18.45;34.53
66668;BME280;57205;51.438;-2.006;2023-04-25T08:19:02;101202.72;;;18.23;34.94
66668;BME280;57205;51.438;-2.006;2023-04-25T08:21:28;101194.47;;;18.83;33.46
66668;BME280;57205;51.438;-2.006;2023-04-25T08:23:53;101194.91;;;18.63;33.69
66668;BME280;57205;51.438;-2.006;2023-04-25T08:26:19;101196.69;;;18.81;33.22
66668;BME280;57205;51.438;-2.006;2023-04-25T08:28:46;101199.28;;;18.04;34.79
66668;BME280;57205;51.438;-2.006;2023-04-25T08:31:11;101199.78;;;18.88;34.35
66668;BME280;57205;51.438;-2.006;2023-04-25T08:33:36;101207.34;;;18.36;34.14
66668;BME280;57205;51.438;-2.006;2023-04-25T08:36:02;101198.69;;;18.89;33.16
66668;BME280;57205;51.438;-2.006;2023-04-25T08:38:28;101195.03;;;18.93;33.91
66668;BME280;57205;51.438;-2.006;2023-04-25T08:40:53;101201.78;;;19.76;32.40
66668;BME280;57205;51.438;-2.006;2023-04-25T08:43:20;101206.56;;;20.01;31.72
66668;BME280;57205;51.438;-2.006;2023-04-25T08:45:46;101202.75;;;19.80;32.61
66668;BME280;57205;51.438;-2.006;2023-04-25T08:48:14;101205.72;;;20.31;31.82
66668;BME280;57205;51.438;-2.006;2023-04-25T08:50:51;101197.31;;;20.10;32.44
66668;BME280;57205;51.438;-2.006;2023-04-25T08:53:23;101199.59;;;20.17;30.70
66668;BME280;57205;51.438;-2.006;2023-04-25T08:55:50;101200.88;;;19.89;30.33
66668;BME280;57205;51.438;-2.006;2023-04-25T08:58:16;101197.97;;;19.77;31.44
66668;BME280;57205;51.438;-2.006;2023-04-25T09:00:42;101191.25;;;20.13;31.09
66668;BME280;57205;51.438;-2.006;2023-04-25T09:03:08;101184.00;;;20.31;29.81
66668;BME280;57205;51.438;-2.006;2023-04-25T09:05:34;101191.97;;;20.27;30.11
66668;BME280;57205;51.438;-2.006;2023-04-25T09:08:00;101184.66;;;19.75;30.16
66668;BME280;57205;51.438;-2.006;2023-04-25T09:10:26;101194.66;;;19.35;30.99
66668;BME280;57205;51.438;-2.006;2023-04-25T09:15:28;101188.75;;;19.64;31.12
66668;BME280;57205;51.438;-2.006;2023-04-25T09:17:57;101186.06;;;19.95;30.22
66668;BME280;57205;51.438;-2.006;2023-04-25T09:20:23;101183.16;;;19.61;29.78
66668;BME280;57205;51.438;-2.006;2023-04-25T09:23:01;101195.28;;;19.85;28.46
66668;BME280;57205;51.438;-2.006;2023-04-25T09:25:26;101191.41;;;19.11;28.49
66668;BME280;57205;51.438;-2.006;2023-04-25T09:27:53;101186.81;;;19.87;28.18
66668;BME280;57205;51.438;-2.006;2023-04-25T09:30:29;101186.22;;;19.23;28.29
66668;BME280;57205;51.438;-2.006;2023-04-25T09:33:06;101197.31;;;19.13;29.25
66668;BME280;57205;51.438;-2.006;2023-04-25T09:35:42;101179.19;;;19.36;29.06
66668;BME280;57205;51.438;-2.006;2023-04-25T09:38:12;101179.63;;;19.38;29.66
66668;BME280;57205;51.438;-2.006;2023-04-25T09:40:42;101174.50;;;19.14;27.75
66668;BME280;57205;51.438;-2.006;2023-04-25T09:43:09;101181.00;;;18.91;28.82
66668;BME280;57205;51.438;-2.006;2023-04-25T09:45:41;101180.63;;;19.42;28.85
66668;BME280;57205;51.438;-2.006;2023-04-25T09:48:06;101175.19;;;19.64;27.56
66668;BME280;57205;51.438;-2.006;2023-04-25T09:50:32;101178.38;;;19.66;27.89
66668;BME280;57205;51.438;-2.006;2023-04-25T09:53:03;101176.88;;;19.52;27.76
66668;BME280;57205;51.438;-2.006;2023-04-25T09:55:31;101177.78;;;19.69;27.52
66668;BME280;57205;51.438;-2.006;2023-04-25T09:58:01;101173.69;;;19.80;26.89
66668;BME280;57205;51.438;-2.006;2023-04-25T10:00:30;101176.03;;;19.29;27.78
66668;BME280;57205;51.438;-2.006;2023-04-25T10:02:57;101179.38;;;18.90;28.25
66668;BME280;57205;51.438;-2.006;2023-04-25T10:05:22;101174.00;;;18.77;27.87
66668;BME280;57205;51.438;-2.006;2023-04-25T10:07:50;101176.06;;;18.58;28.33
66668;BME280;57205;51.438;-2.006;2023-04-25T10:10:17;101172.81;;;19.05;29.00
66668;BME280;57205;51.438;-2.006;2023-04-25T10:12:44;101184.66;;;18.32;28.94
66668;BME280;57205;51.438;-2.006;2023-04-25T10:15:10;101188.31;;;18.41;28.58
66668;BME280;57205;51.438;-2.006;2023-04-25T10:17:36;101185.97;;;18.62;28.10
66668;BME280;57205;51.438;-2.006;2023-04-25T10:20:02;101180.06;;;18.60;29.16
66668;BME280;57205;51.438;-2.006;2023-04-25T10:22:33;101189.09;;;18.56;29.13
66668;BME280;57205;51.438;-2.006;2023-04-25T10:25:00;101185.47;;;18.33;28.31
66668;BME280;57205;51.438;-2.006;2023-04-25T10:27:29;101177.38;;;18.46;27.97
66668;BME280;57205;51.438;-2.006;2023-04-25T10:30:07;101187.31;;;17.46;28.11
66668;BME280;57205;51.438;-2.006;2023-04-25T10:32:37;101182.91;;;17.82;27.86
66668;BME280;57205;51.438;-2.006;2023-04-25T10:35:33;101179.53;;;17.26;28.16
66668;BME280;57205;51.438;-2.006;2023-04-25T10:38:00;101187.00;;;17.66;26.80
66668;BME280;57205;51.438;-2.006;2023-04-25T10:40:26;101182.91;;;17.82;26.99
66668;BME280;57205;51.438;-2.006;2023-04-25T10:42:52;101187.63;;;17.44;27.81
66668;BME280;57205;51.438;-2.006;2023-04-25T10:45:19;101188.09;;;16.96;28.72
66668;BME280;57205;51.438;-2.006;2023-04-25T10:47:45;101177.81;;;17.30;27.71
66668;BME280;57205;51.438;-2.006;2023-04-25T10:50:11;101181.97;;;17.41;28.54
66668;BME280;57205;51.438;-2.006;2023-04-25T10:52:38;101183.75;;;17.13;28.03
66668;BME280;57205;51.438;-2.006;2023-04-25T10:55:05;101182.47;;;16.50;28.82
66668;BME280;57205;51.438;-2.006;2023-04-25T11:00:05;101189.97;;;15.15;30.62
66668;BME280;57205;51.438;-2.006;2023-04-25T11:02:31;101191.75;;;14.86;30.97
66668;BME280;57205;51.438;-2.006;2023-04-25T11:04:57;101190.81;;;14.61;32.04
66668;BME280;57205;51.438;-2.006;2023-04-25T11:07:46;101197.13;;;14.32;31.87
66668;BME280;57205;51.438;-2.006;2023-04-25T11:10:14;101191.13;;;14.50;31.67
66668;BME280;57205;51.438;-2.006;2023-04-25T11:12:40;101190.94;;;14.31;32.85
66668;BME280;57205;51.438;-2.006;2023-04-25T11:15:07;101185.41;;;13.57;34.15
66668;BME280;57205;51.438;-2.006;2023-04-25T11:17:33;101191.84;;;13.71;34.64
66668;BME280;57205;51.438;-2.006;2023-04-25T11:19:59;101189.41;;;13.70;33.80
66668;BME280;57205;51.438;-2.006;2023-04-25T11:22:26;101179.47;;;13.86;34.37
66668;BME280;57205;51.438;-2.006;2023-04-25T11:24:52;101187.50;;;13.96;34.06
66668;BME280;57205;51.438;-2.006;2023-04-25T11:27:18;101181.84;;;13.92;33.73
66668;BME280;57205;51.438;-2.006;2023-04-25T11:29:43;101183.75;;;13.87;35.34
66668;BME280;57205;51.438;-2.006;2023-04-25T11:32:09;101189.09;;;14.07;35.19
66668;BME280;57205;51.438;-2.006;2023-04-25T11:34:34;101182.38;;;13.99;34.68
66668;BME280;57205;51.438;-2.006;2023-04-25T11:37:01;101185.66;;;13.51;34.70
66668;BME280;57205;51.438;-2.006;2023-04-25T11:39:27;101177.31;;;13.47;35.63
66668;BME280;57205;51.438;-2.006;2023-04-25T11:41:54;101176.78;;;13.76;34.99
66668;BME280;57205;51.438;-2.006;2023-04-25T11:44:20;101179.69;;;13.94;34.20
66668;BME280;57205;51.438;-2.006;2023-04-25T11:46:46;101179.97;;;14.03;34.09
66668;BME280;57205;51.438;-2.006;2023-04-25T11:49:12;101184.50;;;14.07;34.54
66668;BME280;57205;51.438;-2.006;2023-04-25T11:51:45;101190.97;;;14.01;34.45
66668;BME280;57205;51.438;-2.006;2023-04-25T11:54:12;101185.13;;;13.74;34.65
66668;BME280;57205;51.438;-2.006;2023-04-25T11:56:43;101199.91;;;13.82;35.18
66668;BME280;57205;51.438;-2.006;2023-04-25T11:59:09;101192.13;;;13.45;34.62
66668;BME280;57205;51.438;-2.006;2023-04-25T12:01:41;101187.81;;;13.49;35.13
66668;BME280;57205;51.438;-2.006;2023-04-25T12:04:22;101184.06;;;13.60;35.37
66668;BME280;57205;51.438;-2.006;2023-04-25T12:06:53;101193.75;;;13.56;34.03
66668;BME280;57205;51.438;-2.006;2023-04-25T12:09:40;101186.47;;;13.26;34.42
66668;BME280;57205;51.438;-2.006;2023-04-25T12:12:09;101188.34;;;13.51;34.36
66668;BME280;57205;51.438;-2.006;2023-04-25T12:14:35;101184.56;;;13.72;34.00
66668;BME280;57205;51.438;-2.006;2023-04-25T12:17:03;101184.00;;;14.00;34.72
66668;BME280;57205;51.438;-2.006;2023-04-25T12:19:33;101194.72;;;14.10;34.00
66668;BME280;57205;51.438;-2.006;2023-04-25T12:22:01;101195.78;;;14.14;33.23
66668;BME280;57205;51.438;-2.006;2023-04-25T12:24:28;101193.63;;;14.16;34.09
66668;BME280;57205;51.438;-2.006;2023-04-25T12:26:59;101196.59;;;14.15;34.38
66668;BME280;57205;51.438;-2.006;2023-04-25T12:29:27;101209.03;;;14.01;35.21
66668;BME280;57205;51.438;-2.006;2023-04-25T12:31:54;101202.59;;;13.77;35.13
66668;BME280;57205;51.438;-2.006;2023-04-25T12:34:20;101207.44;;;13.69;35.14
66668;BME280;57205;51.438;-2.006;2023-04-25T12:36:46;101208.53;;;13.48;35.61
66668;BME280;57205;51.438;-2.006;2023-04-25T12:39:16;101200.72;;;13.32;34.68
66668;BME280;57205;51.438;-2.006;2023-04-25T12:41:42;101205.03;;;13.23;34.14